Time;durP1;ratioP1;P1;durP2;ratioP2;P2;SDS_P1;SDS_P2;PMS_P1;PMS_P2;Temp;Humidity;BMP_temperature;BMP_pressure;BME280_temperature;BME280_humidity;BME280_pressure;Samples;Min_cycle;Max_cycle;Signal;HPM_P1;HPM_P2
2023/07/23 00:02:39;;;;;;;5.10;4.05;;;;;;;;;;9948317;28;20457;-73
2023/07/23 00:07:33;;;;;;;4.85;3.47;;;;;;;;;;9947188;28;20043;-73
2023/07/23 00:12:26;;;;;;;5.88;4.35;;;;;;;;;;9937793;28;20078;-72
2023/07/23 00:17:21;;;;;;;4.93;4.22;;;;;;;;;;9946708;28;20086;-73
2023/07/23 00:22:15;;;;;;;5.65;3.95;;;;;;;;;;9948643;28;20128;-73
2023/07/23 00:27:10;;;;;;;4.97;4.47;;;;;;;;;;9949785;28;20553;-73
2023/07/23 00:32:06;;;;;;;4.68;4.10;;;;;;;;;;9945996;28;20038;-73
2023/07/23 00:37:00;;;;;;;4.88;3.83;;;;;;;;;;9942419;28;20043;-73
2023/07/23 00:41:54;;;;;;;5.57;4.63;;;;;;;;;;9946236;28;20055;-73
2023/07/23 00:46:48;;;;;;;5.18;3.97;;;;;;;;;;9946895;28;20051;-73
2023/07/23 00:51:41;;;;;;;6.97;4.97;;;;;;;;;;9946426;28;20105;-73
2023/07/23 00:56:37;;;;;;;5.30;4.80;;;;;;;;;;9960318;28;20043;-74
2023/07/23 01:01:31;;;;;;;4.45;3.95;;;;;;;;;;9944943;28;20065;-74
2023/07/23 01:06:28;;;;;;;5.45;4.55;;;;;;;;;;9950067;28;20051;-73
2023/07/23 01:11:26;;;;;;;4.57;3.83;;;;;;;;;;9945812;28;20568;-73
2023/07/23 01:16:20;;;;;;;;;;;;;;;;;;9932699;28;20121;-73
2023/07/23 01:21:16;;;;;;;5.03;4.20;;;;;;;;;;9929278;28;20364;-73
2023/07/23 01:26:10;;;;;;;4.55;3.90;;;;;;;;;;9944112;28;20134;-73
2023/07/23 01:31:04;;;;;;;4.88;4.05;;;;;;;;;;9943603;28;20057;-74
2023/07/23 01:36:01;;;;;;;4.60;3.85;;;;;;;;;;9945409;28;20050;-73
2023/07/23 01:41:12;;;;;;;4.93;4.10;;;;;;;;;;9930740;28;20059;-73
2023/07/23 01:46:06;;;;;;;4.45;4.00;;;;;;;;;;9927383;28;20151;-73
2023/07/23 01:50:59;;;;;;;4.38;3.97;;;;;;;;;;9929594;28;20054;-73
2023/07/23 01:55:53;;;;;;;6.90;4.57;;;;;;;;;;9928200;28;20054;-73
2023/07/23 02:00:47;;;;;;;4.97;4.05;;;;;;;;;;9926242;28;20111;-73
2023/07/23 02:05:41;;;;;;;4.90;4.15;;;;;;;;;;9942376;28;20536;-73
2023/07/23 02:10:35;;;;;;;4.88;4.30;;;;;;;;;;9944165;28;20052;-73
2023/07/23 02:15:32;;;;;;;4.07;3.40;;;;;;;;;;9932216;28;20054;-73
2023/07/23 02:20:25;;;;;;;6.80;4.57;;;;;;;;;;9945635;28;20055;-73
2023/07/23 02:25:19;;;;;;;5.03;4.10;;;;;;;;;;9931221;28;20043;-73
2023/07/23 02:30:13;;;;;;;4.10;3.72;;;;;;;;;;9950671;28;20047;-73
2023/07/23 02:35:07;;;;;;;4.47;3.92;;;;;;;;;;9948758;28;20560;-73
2023/07/23 02:40:03;;;;;;;5.47;3.85;;;;;;;;;;9948400;28;20051;-73
2023/07/23 02:44:57;;;;;;;5.50;4.70;;;;;;;;;;9923753;28;20052;-73
2023/07/23 02:49:51;;;;;;;4.72;3.65;;;;;;;;;;9949111;28;20514;-73
2023/07/23 02:54:44;;;;;;;4.22;3.83;;;;;;;;;;9948866;28;20080;-74
2023/07/23 02:59:38;;;;;;;6.15;4.20;;;;;;;;;;9916991;28;20057;-73
2023/07/23 03:04:31;;;;;;;4.50;3.67;;;;;;;;;;9948137;28;20498;-73
2023/07/23 03:09:25;;;;;;;5.20;4.03;;;;;;;;;;9950172;28;20078;-73
2023/07/23 03:14:19;;;;;;;5.15;4.57;;;;;;;;;;9927066;28;20102;-73
2023/07/23 03:19:12;;;;;;;4.35;3.92;;;;;;;;;;9950467;28;20055;-74
2023/07/23 03:24:07;;;;;;;4.35;3.47;;;;;;;;;;9949878;28;20043;-73
2023/07/23 03:29:00;;;;;;;5.40;4.88;;;;;;;;;;9948990;28;20043;-73
2023/07/23 03:33:53;;;;;;;4.38;3.88;;;;;;;;;;9947583;28;20129;-73
2023/07/23 03:38:48;;;;;;;4.88;3.97;;;;;;;;;;9947913;28;20089;-73
2023/07/23 03:43:42;;;;;;;5.50;3.72;;;;;;;;;;9931154;28;20062;-74
2023/07/23 03:48:35;;;;;;;4.47;3.58;;;;;;;;;;9948306;28;20509;-73
2023/07/23 03:53:29;;;;;;;4.20;3.17;;;;;;;;;;9949874;28;20081;-73
2023/07/23 03:58:23;;;;;;;4.32;3.55;;;;;;;;;;9948479;28;20089;-73
2023/07/23 04:03:17;;;;;;;4.88;4.35;;;;;;;;;;9939492;28;20039;-73
2023/07/23 04:08:11;;;;;;;6.10;3.80;;;;;;;;;;9947065;28;20055;-73
2023/07/23 04:13:05;;;;;;;6.70;4.25;;;;;;;;;;9936895;28;20130;-74
2023/07/23 04:17:59;;;;;;;4.40;4.00;;;;;;;;;;9934445;28;20498;-73
2023/07/23 04:22:53;;;;;;;5.03;4.50;;;;;;;;;;9947533;28;20058;-73
2023/07/23 04:27:46;;;;;;;4.65;3.85;;;;;;;;;;9930820;28;20078;-74
2023/07/23 04:32:41;;;;;;;4.43;3.67;;;;;;;;;;9948457;28;20069;-73
2023/07/23 04:37:35;;;;;;;3.90;3.53;;;;;;;;;;9914469;28;20494;-73
2023/07/23 04:42:28;;;;;;;4.28;3.75;;;;;;;;;;9931637;28;20127;-74
2023/07/23 04:47:22;;;;;;;4.40;3.75;;;;;;;;;;9945586;28;20053;-73
2023/07/23 04:52:17;;;;;;;4.53;3.55;;;;;;;;;;9946355;28;20502;-73
2023/07/23 04:57:11;;;;;;;4.65;3.97;;;;;;;;;;9946466;28;20055;-73
2023/07/23 05:02:06;;;;;;;5.18;4.22;;;;;;;;;;9945544;28;20106;-73
2023/07/23 05:07:00;;;;;;;4.72;3.92;;;;;;;;;;9945333;28;20046;-74
2023/07/23 05:11:55;;;;;;;4.22;3.80;;;;;;;;;;9945904;28;20395;-73
2023/07/23 05:16:48;;;;;;;4.85;3.78;;;;;;;;;;9947575;28;20051;-73
2023/07/23 05:21:42;;;;;;;4.63;3.70;;;;;;;;;;9945895;28;20130;-73
2023/07/23 05:26:36;;;;;;;3.92;3.53;;;;;;;;;;9946797;28;20046;-74
2023/07/23 05:31:31;;;;;;;5.10;4.60;;;;;;;;;;9947580;28;20055;-72
2023/07/23 05:36:26;;;;;;;3.70;3.40;;;;;;;;;;9946611;28;20050;-72
2023/07/23 05:41:20;;;;;;;3.55;3.25;;;;;;;;;;9945221;28;20065;-72
2023/07/23 05:46:13;;;;;;;5.22;3.85;;;;;;;;;;9945697;28;20061;-72
2023/07/23 05:51:08;;;;;;;4.10;3.45;;;;;;;;;;9944436;28;20138;-73
2023/07/23 05:56:02;;;;;;;4.50;4.10;;;;;;;;;;9948364;28;20058;-74
2023/07/23 06:00:55;;;;;;;4.03;3.70;;;;;;;;;;9953077;28;20482;-73
2023/07/23 06:05:48;;;;;;;4.18;3.78;;;;;;;;;;9933924;28;20403;-72
2023/07/23 06:10:42;;;;;;;3.72;3.42;;;;;;;;;;9952827;28;20506;-72
2023/07/23 06:15:36;;;;;;;3.58;3.22;;;;;;;;;;9927838;28;20054;-73
2023/07/23 06:20:31;;;;;;;3.95;3.55;;;;;;;;;;9951744;28;20058;-73
2023/07/23 06:25:25;;;;;;;4.18;3.78;;;;;;;;;;9950444;28;20043;-73
2023/07/23 06:30:19;;;;;;;4.35;3.90;;;;;;;;;;9952340;28;20453;-73
2023/07/23 06:35:13;;;;;;;4.03;3.63;;;;;;;;;;9952493;28;20043;-73
2023/07/23 06:40:09;;;;;;;4.25;3.72;;;;;;;;;;9948733;28;20760;-73
2023/07/23 06:45:03;;;;;;;4.07;3.38;;;;;;;;;;9945567;28;20541;-73
2023/07/23 06:50:01;;;;;;;4.15;3.67;;;;;;;;;;9938283;28;20130;-72
2023/07/23 06:54:55;;;;;;;3.90;3.50;;;;;;;;;;9951572;28;20058;-72
2023/07/23 06:59:49;;;;;;;4.38;3.47;;;;;;;;;;9947488;28;20121;-73
2023/07/23 07:04:44;;;;;;;9.45;7.88;;;;;;;;;;9937896;28;20074;-72
2023/07/23 07:09:38;;;;;;;11.38;9.15;;;;;;;;;;9922790;28;20046;-71
2023/07/23 07:14:32;;;;;;;13.88;10.38;;;;;;;;;;9926296;28;20065;-72
2023/07/23 07:19:26;;;;;;;15.73;12.82;;;;;;;;;;9948592;28;20069;-72
2023/07/23 07:24:20;;;;;;;15.98;13.65;;;;;;;;;;9945219;28;20061;-72
2023/07/23 07:29:14;;;;;;;20.13;13.00;;;;;;;;;;9950656;28;20481;-73
2023/07/23 07:34:08;;;;;;;15.43;13.82;;;;;;;;;;9951194;28;20083;-74
2023/07/23 07:39:03;;;;;;;18.20;13.75;;;;;;;;;;9950700;28;20062;-73
2023/07/23 07:43:57;;;;;;;15.52;13.20;;;;;;;;;;9950953;28;20074;-74
2023/07/23 07:48:50;;;;;;;17.63;15.75;;;;;;;;;;9944983;28;20141;-74
2023/07/23 07:53:45;;;;;;;16.13;14.20;;;;;;;;;;9939564;28;20074;-74
2023/07/23 07:58:40;;;;;;;17.10;13.85;;;;;;;;;;9939496;28;20053;-74
2023/07/23 08:03:35;;;;;;;20.92;14.32;;;;;;;;;;9927898;28;20070;-73
2023/07/23 08:08:32;;;;;;;20.23;16.02;;;;;;;;;;9941792;28;20050;-75
2023/07/23 08:13:28;;;;;;;16.55;14.57;;;;;;;;;;9943028;28;20065;-74
2023/07/23 08:18:23;;;;;;;16.33;14.73;;;;;;;;;;9940960;28;20068;-75
2023/07/23 08:23:20;;;;;;;15.82;14.13;;;;;;;;;;9939926;28;20509;-74
2023/07/23 08:28:21;;;;;;;17.30;15.00;;;;;;;;;;9941682;28;20086;-73
2023/07/23 08:33:18;;;;;;;17.40;15.32;;;;;;;;;;9923757;28;20039;-74
2023/07/23 08:38:12;;;;;;;20.33;15.50;;;;;;;;;;9940201;28;20073;-73
2023/07/23 08:43:21;;;;;;;18.23;15.10;;;;;;;;;;9925247;28;20069;-74
2023/07/23 08:48:17;;;;;;;20.92;17.42;;;;;;;;;;9918661;28;20055;-74
2023/07/23 08:53:13;;;;;;;20.25;15.55;;;;;;;;;;9937703;28;20055;-74
2023/07/23 08:58:07;;;;;;;16.38;14.55;;;;;;;;;;9939927;28;20082;-74
2023/07/23 09:03:03;;;;;;;20.52;15.35;;;;;;;;;;9922391;28;20082;-74
2023/07/23 09:07:57;;;;;;;17.50;15.60;;;;;;;;;;9937467;28;20055;-75
2023/07/23 09:12:51;;;;;;;26.88;16.30;;;;;;;;;;9936828;28;20101;-75
2023/07/23 09:17:52;;;;;;;15.45;11.38;;;;;;;;;;9942098;28;20125;-75
2023/07/23 09:22:46;;;;;;;15.77;13.25;;;;;;;;;;9934667;28;20063;-74
2023/07/23 09:27:43;;;;;;;17.30;13.68;;;;;;;;;;9937016;28;20055;-74
2023/07/23 09:32:37;;;;;;;19.23;13.52;;;;;;;;;;9946028;28;20043;-73
2023/07/23 09:37:33;;;;;;;13.07;11.77;;;;;;;;;;9947511;28;20059;-74
2023/07/23 09:42:27;;;;;;;14.13;12.63;;;;;;;;;;9952979;28;20055;-74
2023/07/23 09:47:25;;;;;;;17.35;13.18;;;;;;;;;;9951870;28;20066;-73
2023/07/23 09:52:26;;;;;;;14.25;11.75;;;;;;;;;;9953942;28;20046;-73
2023/07/23 09:57:20;;;;;;;14.98;13.25;;;;;;;;;;9928580;28;20047;-75
2023/07/23 10:02:16;;;;;;;16.50;12.25;;;;;;;;;;9952368;28;20489;-76
2023/07/23 10:07:10;;;;;;;14.38;11.85;;;;;;;;;;9949529;28;20058;-75
2023/07/23 10:12:07;;;;;;;15.50;12.57;;;;;;;;;;9939641;28;20055;-75
2023/07/23 10:17:03;;;;;;;15.52;13.35;;;;;;;;;;9946996;28;20525;-75
2023/07/23 10:21:56;;;;;;;14.73;12.02;;;;;;;;;;9953485;28;20409;-75
2023/07/23 10:26:54;;;;;;;14.43;11.43;;;;;;;;;;9979484;28;20054;-75
2023/07/23 10:31:48;;;;;;;14.05;11.40;;;;;;;;;;9950206;28;20149;-75
2023/07/23 10:37:10;;;;;;;13.65;11.23;;;;;;;;;;9951769;28;20074;-75
2023/07/23 10:42:05;;;;;;;16.08;12.02;;;;;;;;;;9945537;28;20055;-75
2023/07/23 10:47:02;;;;;;;11.85;10.30;;;;;;;;;;9933554;28;20095;-74
2023/07/23 10:52:17;;;;;;;12.10;10.90;;;;;;;;;;9942878;28;20039;-74
2023/07/23 10:57:24;;;;;;;12.52;10.35;;;;;;;;;;9940264;28;20580;-75
2023/07/23 11:02:25;;;;;;;11.65;10.45;;;;;;;;;;9942582;28;20066;-75
2023/07/23 11:07:31;;;;;;;11.57;9.75;;;;;;;;;;9926027;28;20051;-75
2023/07/23 11:12:25;;;;;;;12.15;10.95;;;;;;;;;;9956059;23;20728;-47
2023/07/23 11:17:17;;;;;;;10.88;9.45;;;;;;;;;;9945022;28;20042;-48
2023/07/23 11:22:09;;;;;;;11.93;10.52;;;;;;;;;;9944644;28;20488;-47
2023/07/23 11:27:03;;;;;;;11.07;9.93;;;;;;;;;;9945587;28;20054;-46
2023/07/23 11:31:56;;;;;;;10.70;9.18;;;;;;;;;;9930438;28;20042;-45
2023/07/23 11:36:52;;;;;;;11.35;9.93;;;;;;;;;;9935812;28;20053;-48
2023/07/23 11:41:44;;;;;;;11.80;9.55;;;;;;;;;;9903666;28;20051;-44
2023/07/23 11:46:39;;;;;;;13.00;10.90;;;;;;;;;;9910808;28;20047;-43
2023/07/23 11:51:34;;;;;;;11.95;9.10;;;;;;;;;;9905907;28;20355;-45
2023/07/23 11:56:26;;;;;;;11.57;9.10;;;;;;;;;;9911118;28;20445;-46
2023/07/23 12:01:18;;;;;;;10.65;8.98;;;;;;;;;;9909233;28;20090;-46
2023/07/23 12:06:14;;;;;;;10.98;9.63;;;;;;;;;;9908567;28;20473;-47
2023/07/23 12:11:11;;;;;;;11.52;9.27;;;;;;;;;;9903847;28;20526;-48
2023/07/23 12:16:03;;;;;;;11.38;8.52;;;;;;;;;;9906581;28;20070;-51
2023/07/23 12:20:59;;;;;;;11.18;9.73;;;;;;;;;;9922649;28;20043;-48
2023/07/23 12:25:51;;;;;;;13.45;9.55;;;;;;;;;;9909379;28;20062;-46
2023/07/23 12:30:43;;;;;;;15.20;9.20;;;;;;;;;;9910249;28;20086;-51
2023/07/23 12:35:35;;;;;;;12.18;9.93;;;;;;;;;;9909092;28;21276;-49
2023/07/23 12:40:26;;;;;;;11.27;10.05;;;;;;;;;;9907648;28;20246;-47
2023/07/23 12:45:18;;;;;;;13.30;10.32;;;;;;;;;;9908248;28;20110;-51
2023/07/23 12:50:10;;;;;;;10.35;9.25;;;;;;;;;;9906955;28;20429;-49
2023/07/23 12:55:04;;;;;;;10.88;9.77;;;;;;;;;;9907880;28;20055;-51
2023/07/23 12:59:56;;;;;;;14.40;9.32;;;;;;;;;;9908575;28;20043;-53
2023/07/23 13:04:47;;;;;;;10.40;9.02;;;;;;;;;;9906765;28;20233;-50
2023/07/23 13:09:39;;;;;;;12.35;10.32;;;;;;;;;;9909455;28;20134;-46
2023/07/23 13:14:31;;;;;;;10.68;8.98;;;;;;;;;;9902153;28;20059;-48
2023/07/23 13:19:23;;;;;;;11.48;9.63;;;;;;;;;;9908071;29;20048;-50
2023/07/23 13:24:15;;;;;;;13.57;10.15;;;;;;;;;;9915381;28;20050;-48
2023/07/23 13:29:06;;;;;;;11.18;9.95;;;;;;;;;;9910319;28;20051;-48
2023/07/23 13:33:59;;;;;;;16.70;11.55;;;;;;;;;;9895157;28;20078;-48
2023/07/23 13:38:50;;;;;;;14.55;9.38;;;;;;;;;;9907781;28;20047;-47
2023/07/23 13:43:42;;;;;;;13.35;10.15;;;;;;;;;;9903590;28;20521;-49
2023/07/23 13:48:34;;;;;;;13.00;10.48;;;;;;;;;;9905926;29;20377;-48
2023/07/23 13:53:26;;;;;;;12.93;10.13;;;;;;;;;;9902630;28;20043;-46
2023/07/23 13:58:18;;;;;;;11.05;9.82;;;;;;;;;;9907038;29;20474;-50
2023/07/23 14:03:10;;;;;;;14.13;10.95;;;;;;;;;;9906082;28;20053;-48
2023/07/23 14:08:02;;;;;;;11.35;10.15;;;;;;;;;;9907530;29;20043;-47
2023/07/23 14:12:54;;;;;;;13.82;10.90;;;;;;;;;;9912019;28;20102;-52
2023/07/23 14:17:46;;;;;;;11.90;10.25;;;;;;;;;;9912159;28;20135;-50
2023/07/23 14:22:38;;;;;;;13.10;10.15;;;;;;;;;;9900203;28;20055;-49
2023/07/23 14:27:30;;;;;;;13.52;11.55;;;;;;;;;;9914368;28;20043;-49
2023/07/23 14:32:22;;;;;;;11.75;10.48;;;;;;;;;;9914393;28;20489;-50
2023/07/23 14:37:13;;;;;;;13.75;10.93;;;;;;;;;;9912680;28;20428;-52
2023/07/23 14:42:05;;;;;;;15.02;12.23;;;;;;;;;;9912895;28;20476;-49
2023/07/23 14:46:57;;;;;;;14.85;11.13;;;;;;;;;;9912287;28;20118;-47
2023/07/23 14:51:49;;;;;;;17.20;11.60;;;;;;;;;;9913551;28;20058;-52
2023/07/23 14:56:41;;;;;;;14.23;11.27;;;;;;;;;;9909060;28;20118;-47
2023/07/23 15:01:32;;;;;;;15.80;11.23;;;;;;;;;;9903013;28;20040;-52
2023/07/23 15:06:24;;;;;;;18.80;12.20;;;;;;;;;;9898213;28;20095;-49
2023/07/23 15:11:16;;;;;;;18.52;12.50;;;;;;;;;;9913077;28;20096;-49
2023/07/23 15:16:08;;;;;;;13.43;11.40;;;;;;;;;;9912771;28;20059;-49
2023/07/23 15:21:01;;;;;;;18.17;12.23;;;;;;;;;;9912597;29;20358;-50
2023/07/23 15:25:53;;;;;;;18.58;12.27;;;;;;;;;;9907775;28;20079;-48
2023/07/23 15:30:45;;;;;;;16.58;11.68;;;;;;;;;;9912472;29;20094;-52
2023/07/23 15:35:37;;;;;;;22.92;14.80;;;;;;;;;;9887916;28;20086;-50
2023/07/23 15:40:28;;;;;;;18.50;12.27;;;;;;;;;;9902905;28;20061;-52
2023/07/23 15:45:20;;;;;;;17.30;13.63;;;;;;;;;;9895462;28;20062;-51
2023/07/23 15:50:12;;;;;;;17.92;12.52;;;;;;;;;;9874853;28;20480;-49
2023/07/23 15:55:05;;;;;;;15.38;12.38;;;;;;;;;;9893049;28;20047;-48
2023/07/23 15:59:56;;;;;;;18.00;13.52;;;;;;;;;;9889578;28;20543;-48
2023/07/23 16:04:48;;;;;;;20.33;12.73;;;;;;;;;;9907431;28;20446;-48
2023/07/23 16:09:40;;;;;;;16.40;11.63;;;;;;;;;;9903793;28;20039;-49
2023/07/23 16:14:32;;;;;;;16.80;13.18;;;;;;;;;;9890323;28;20158;-47
2023/07/23 16:19:24;;;;;;;16.92;14.13;;;;;;;;;;9907201;29;20043;-49
2023/07/23 16:24:16;;;;;;;21.42;13.65;;;;;;;;;;9907020;28;20050;-47
2023/07/23 16:29:08;;;;;;;21.25;15.32;;;;;;;;;;9881262;28;20045;-52
2023/07/23 16:34:04;;;;;;;19.13;14.50;;;;;;;;;;9908720;28;20083;-52
2023/07/23 16:38:56;;;;;;;21.02;15.07;;;;;;;;;;9876998;28;20051;-47
2023/07/23 16:43:48;;;;;;;26.30;16.40;;;;;;;;;;9868379;28;20052;-52
2023/07/23 16:48:40;;;;;;;20.45;13.75;;;;;;;;;;9884210;29;20043;-50
2023/07/23 16:53:32;;;;;;;19.50;14.50;;;;;;;;;;9904863;28;20050;-46
2023/07/23 16:58:25;;;;;;;18.10;14.68;;;;;;;;;;9902958;28;20043;-53
2023/07/23 17:03:17;;;;;;;17.35;14.60;;;;;;;;;;9890037;28;20081;-50
2023/07/23 17:08:08;;;;;;;17.35;14.10;;;;;;;;;;9879959;28;20055;-49
2023/07/23 17:13:00;;;;;;;18.75;14.98;;;;;;;;;;9899392;28;20055;-50
2023/07/23 17:17:52;;;;;;;23.23;14.55;;;;;;;;;;9901184;28;20750;-49
2023/07/23 17:22:44;;;;;;;18.83;13.32;;;;;;;;;;9903297;28;20044;-47
2023/07/23 17:27:36;;;;;;;17.88;14.13;;;;;;;;;;9895574;28;20078;-49
2023/07/23 17:32:28;;;;;;;20.23;14.23;;;;;;;;;;9897128;28;20043;-46
2023/07/23 17:37:20;;;;;;;19.73;14.55;;;;;;;;;;9901116;29;20493;-47
2023/07/23 17:42:12;;;;;;;19.80;14.25;;;;;;;;;;9901631;28;20043;-46
2023/07/23 17:47:04;;;;;;;18.75;13.82;;;;;;;;;;9884402;28;20363;-45
2023/07/23 17:51:57;;;;;;;19.02;14.80;;;;;;;;;;9900257;28;20051;-49
2023/07/23 17:56:49;;;;;;;20.60;15.30;;;;;;;;;;9909602;28;20051;-47
2023/07/23 18:01:43;;;;;;;25.50;13.85;;;;;;;;;;9905261;28;20065;-47
2023/07/23 18:06:35;;;;;;;23.55;14.18;;;;;;;;;;9891704;28;20466;-46
2023/07/23 18:11:27;;;;;;;24.02;14.55;;;;;;;;;;9909837;29;20457;-45
2023/07/23 18:16:19;;;;;;;46.58;16.83;;;;;;;;;;9906001;28;20047;-45
2023/07/23 18:21:10;;;;;;;47.47;20.10;;;;;;;;;;9904095;29;20048;-47
2023/07/23 18:26:02;;;;;;;46.88;18.17;;;;;;;;;;9908254;29;20047;-47
2023/07/23 18:31:00;;;;;;;38.15;18.42;;;;;;;;;;9913601;29;20358;-48
2023/07/23 18:35:52;;;;;;;39.33;17.75;;;;;;;;;;9913847;29;20059;-48
2023/07/23 18:40:44;;;;;;;37.33;19.80;;;;;;;;;;9915301;28;20481;-48
2023/07/23 18:45:36;;;;;;;31.60;18.30;;;;;;;;;;9914768;29;20469;-48
2023/07/23 18:50:28;;;;;;;34.75;19.42;;;;;;;;;;9911883;29;20126;-46
2023/07/23 18:55:20;;;;;;;28.73;16.60;;;;;;;;;;9913534;29;20097;-45
2023/07/23 19:00:13;;;;;;;31.70;19.30;;;;;;;;;;9914073;28;20473;-48
2023/07/23 19:05:05;;;;;;;30.25;18.40;;;;;;;;;;9913006;29;20137;-49
2023/07/23 19:09:57;;;;;;;25.60;17.63;;;;;;;;;;9912819;29;20440;-46
2023/07/23 19:14:49;;;;;;;34.15;16.25;;;;;;;;;;9913601;29;20051;-47
2023/07/23 19:19:42;;;;;;;26.60;16.63;;;;;;;;;;9911094;29;20437;-45
2023/07/23 19:24:33;;;;;;;30.17;18.30;;;;;;;;;;9901887;29;20046;-48
2023/07/23 19:29:25;;;;;;;31.90;16.48;;;;;;;;;;9911540;29;20047;-45
2023/07/23 19:34:18;;;;;;;27.77;17.15;;;;;;;;;;9911503;29;20055;-44
2023/07/23 19:39:10;;;;;;;27.73;18.02;;;;;;;;;;9911148;28;20046;-47
2023/07/23 19:44:03;;;;;;;28.40;17.50;;;;;;;;;;9912211;29;20043;-47
2023/07/23 19:48:55;;;;;;;27.00;16.63;;;;;;;;;;9911634;29;20047;-47
2023/07/23 19:53:47;;;;;;;25.70;16.83;;;;;;;;;;9912136;29;20110;-44
2023/07/23 19:58:39;;;;;;;26.70;16.85;;;;;;;;;;9911921;29;20039;-48
2023/07/23 20:03:31;;;;;;;29.85;16.48;;;;;;;;;;9934014;28;20051;-47
2023/07/23 20:08:23;;;;;;;23.92;16.88;;;;;;;;;;9915904;28;20047;-45
2023/07/23 20:13:15;;;;;;;24.27;16.08;;;;;;;;;;9907506;28;20094;-45
2023/07/23 20:18:07;;;;;;;25.50;17.30;;;;;;;;;;9908819;29;20051;-45
2023/07/23 20:22:59;;;;;;;25.65;16.27;;;;;;;;;;9906259;29;20496;-46
2023/07/23 20:27:51;;;;;;;25.23;15.85;;;;;;;;;;9909860;29;20466;-51
2023/07/23 20:32:43;;;;;;;25.17;16.75;;;;;;;;;;9911257;29;20051;-47
2023/07/23 20:37:35;;;;;;;24.77;15.05;;;;;;;;;;9907346;29;20146;-47
2023/07/23 20:42:27;;;;;;;25.33;16.33;;;;;;;;;;9907827;28;20130;-44
2023/07/23 20:47:19;;;;;;;26.65;16.65;;;;;;;;;;9911130;29;20062;-46
2023/07/23 20:52:11;;;;;;;26.13;16.60;;;;;;;;;;9907452;29;20082;-44
2023/07/23 20:57:03;;;;;;;23.85;15.57;;;;;;;;;;9906414;29;20062;-43
2023/07/23 21:01:55;;;;;;;23.55;15.73;;;;;;;;;;9910342;29;20521;-46
2023/07/23 21:06:47;;;;;;;24.58;17.25;;;;;;;;;;9917109;28;20051;-48
2023/07/23 21:11:38;;;;;;;22.73;15.35;;;;;;;;;;9934631;28;20043;-46
2023/07/23 21:16:31;;;;;;;24.77;17.67;;;;;;;;;;9916202;28;20051;-51
2023/07/23 21:21:23;;;;;;;24.15;16.73;;;;;;;;;;9909151;29;20039;-45
2023/07/23 21:26:15;;;;;;;24.63;15.88;;;;;;;;;;9917269;28;20120;-45
2023/07/23 21:31:07;;;;;;;21.08;15.30;;;;;;;;;;9922218;29;20051;-45
2023/07/23 21:35:59;;;;;;;23.90;17.77;;;;;;;;;;9921455;28;20045;-45
2023/07/23 21:40:54;;;;;;;20.63;15.57;;;;;;;;;;9920371;28;20051;-48
2023/07/23 21:45:46;;;;;;;20.30;15.63;;;;;;;;;;9905456;29;20043;-46
2023/07/23 21:50:42;;;;;;;17.98;13.82;;;;;;;;;;9919166;28;20047;-45
2023/07/23 21:55:36;;;;;;;22.70;15.43;;;;;;;;;;9922555;28;20054;-48
2023/07/23 22:00:28;;;;;;;22.02;14.98;;;;;;;;;;9921945;28;20366;-48
2023/07/23 22:05:19;;;;;;;22.13;16.73;;;;;;;;;;9921704;28;20122;-44
2023/07/23 22:10:11;;;;;;;20.08;14.73;;;;;;;;;;9922431;29;20047;-47
2023/07/23 22:15:04;;;;;;;17.63;13.85;;;;;;;;;;9920113;28;20063;-46
2023/07/23 22:19:56;;;;;;;17.90;13.73;;;;;;;;;;9918032;28;20043;-48
2023/07/23 22:24:47;;;;;;;18.90;13.43;;;;;;;;;;9916485;28;20047;-46
2023/07/23 22:29:39;;;;;;;20.33;13.88;;;;;;;;;;9915118;29;20043;-47
2023/07/23 22:34:31;;;;;;;19.10;13.77;;;;;;;;;;9914416;29;20131;-47
2023/07/23 22:39:23;;;;;;;16.45;14.20;;;;;;;;;;9909706;28;20047;-45
2023/07/23 22:44:15;;;;;;;17.02;13.35;;;;;;;;;;9919148;28;20421;-47
2023/07/23 22:49:09;;;;;;;20.70;14.40;;;;;;;;;;9911130;28;20054;-47
2023/07/23 22:54:02;;;;;;;19.95;14.23;;;;;;;;;;9903797;29;20469;-50
2023/07/23 22:58:54;;;;;;;17.77;14.20;;;;;;;;;;9907155;29;20453;-44
2023/07/23 23:03:46;;;;;;;22.13;14.23;;;;;;;;;;9904294;29;20150;-48
2023/07/23 23:08:38;;;;;;;17.67;13.05;;;;;;;;;;9902704;29;20070;-46
2023/07/23 23:13:29;;;;;;;20.10;14.38;;;;;;;;;;9904380;28;20359;-49
2023/07/23 23:18:21;;;;;;;20.73;14.48;;;;;;;;;;9904694;29;20512;-48
2023/07/23 23:23:14;;;;;;;18.02;14.05;;;;;;;;;;9905785;29;20051;-48
2023/07/23 23:28:06;;;;;;;20.95;14.13;;;;;;;;;;9905527;29;20051;-48
2023/07/23 23:32:58;;;;;;;19.42;14.25;;;;;;;;;;9905561;29;20067;-45
2023/07/23 23:37:51;;;;;;;21.48;13.80;;;;;;;;;;9896910;29;20513;-49
2023/07/23 23:42:43;;;;;;;17.48;12.43;;;;;;;;;;9880974;28;20394;-49
2023/07/23 23:47:35;;;;;;;16.13;12.00;;;;;;;;;;9908575;28;20095;-48
2023/07/23 23:52:27;;;;;;;16.42;13.25;;;;;;;;;;9900554;28;20050;-43
2023/07/23 23:57:19;;;;;;;18.13;13.77;;;;;;;;;;9900309;28;20070;-44
